Time;durP1;ratioP1;P1;durP2;ratioP2;P2;SDS_P1;SDS_P2;PMS_P1;PMS_P2;Temp;Humidity;BMP_temperature;BMP_pressure;BME280_temperature;BME280_humidity;BME280_pressure;Samples;Min_cycle;Max_cycle;Signal;HPM_P1;HPM_P2
2021/11/28 00:00:08;;;;;;;9.20;5.50;;;6.20;99.90;;;;;;5103032;27;20188;-84
2021/11/28 00:02:35;;;;;;;8.50;5.30;;;6.20;99.90;;;;;;5027701;28;20196;-83
2021/11/28 00:05:06;;;;;;;9.27;5.00;;;6.20;99.90;;;;;;5078101;27;20241;-83
2021/11/28 00:07:47;;;;;;;11.43;6.13;;;6.10;99.90;;;;;;5051454;27;20219;-83
2021/11/28 00:10:19;;;;;;;9.63;5.27;;;6.10;99.90;;;;;;5027840;28;20239;-83
2021/11/28 00:12:48;;;;;;;9.00;5.20;;;6.10;99.90;;;;;;5026032;28;20276;-83
2021/11/28 00:15:18;;;;;;;13.40;7.20;;;6.10;99.90;;;;;;5028225;28;20198;-83
2021/11/28 00:17:45;;;;;;;12.83;6.30;;;6.10;99.90;;;;;;5041580;27;20305;-82
2021/11/28 00:20:16;;;;;;;12.53;6.83;;;6.00;99.90;;;;;;5120616;27;20183;-83
2021/11/28 00:22:44;;;;;;;14.63;7.33;;;6.00;99.90;;;;;;5075112;27;20195;-83
2021/11/28 00:25:14;;;;;;;15.33;6.87;;;6.00;99.90;;;;;;5130523;27;20216;-83
2021/11/28 00:27:42;;;;;;;15.50;7.60;;;6.00;99.90;;;;;;5131273;27;20223;-83
2021/11/28 00:30:15;;;;;;;17.13;7.63;;;5.90;99.90;;;;;;5130655;27;21047;-82
2021/11/28 00:32:42;;;;;;;16.97;8.40;;;5.90;99.90;;;;;;5132182;27;20211;-83
2021/11/28 00:35:11;;;;;;;17.00;8.00;;;5.80;99.90;;;;;;5026316;28;20180;-83
2021/11/28 00:37:39;;;;;;;16.40;8.10;;;5.80;99.90;;;;;;5023769;28;20740;-83
2021/11/28 00:40:07;;;;;;;16.80;7.33;;;5.80;99.90;;;;;;5026095;28;20278;-83
2021/11/28 00:42:35;;;;;;;16.03;7.70;;;5.80;99.90;;;;;;5024010;28;20246;-84
2021/11/28 00:45:03;;;;;;;19.77;8.23;;;5.70;99.90;;;;;;5072062;27;20238;-84
2021/11/28 00:47:30;;;;;;;15.20;7.90;;;5.70;99.90;;;;;;5122261;27;20184;-84
2021/11/28 00:50:06;;;;;;;18.13;7.87;;;5.70;99.90;;;;;;5026284;28;20190;-83
2021/11/28 00:52:34;;;;;;;14.33;7.83;;;5.70;99.90;;;;;;5049529;27;20195;-84
2021/11/28 00:55:05;;;;;;;17.73;8.57;;;5.70;99.90;;;;;;5038392;28;20233;-83
2021/11/28 00:57:33;;;;;;;16.80;8.57;;;5.60;99.90;;;;;;5026294;28;20219;-83
2021/11/28 01:00:03;;;;;;;15.97;8.33;;;5.70;99.90;;;;;;5025912;28;20196;-84
2021/11/28 01:02:33;;;;;;;21.90;9.03;;;5.70;99.90;;;;;;5025799;28;20268;-83
2021/11/28 01:05:01;;;;;;;18.63;8.27;;;5.70;99.90;;;;;;5028442;28;20192;-83
2021/11/28 01:07:28;;;;;;;18.60;8.03;;;5.70;99.90;;;;;;5025930;28;20255;-83
2021/11/28 01:09:55;;;;;;;14.37;6.80;;;5.60;99.90;;;;;;5025998;28;20200;-83
2021/11/28 01:12:25;;;;;;;15.13;7.60;;;5.70;99.90;;;;;;5025791;28;20196;-83
2021/11/28 01:14:52;;;;;;;14.87;8.27;;;5.70;99.90;;;;;;5026203;28;20216;-83
2021/11/28 01:17:22;;;;;;;15.23;8.30;;;5.70;99.90;;;;;;5026830;28;20276;-82
2021/11/28 01:19:50;;;;;;;15.53;7.57;;;5.70;99.90;;;;;;5025840;28;20196;-82
2021/11/28 01:22:17;;;;;;;18.67;8.87;;;5.70;99.90;;;;;;5025961;28;20209;-83
2021/11/28 01:24:45;;;;;;;15.13;8.10;;;5.60;99.90;;;;;;5045162;28;20726;-83
2021/11/28 01:27:17;;;;;;;17.80;8.70;;;5.60;99.90;;;;;;5026021;28;20194;-83
2021/11/28 01:29:46;;;;;;;16.13;8.67;;;5.60;99.90;;;;;;5025000;28;20248;-83
2021/11/28 01:32:15;;;;;;;14.97;8.33;;;5.60;99.90;;;;;;5024828;28;20298;-83
2021/11/28 01:34:43;;;;;;;15.53;8.10;;;5.60;99.90;;;;;;5025026;28;20214;-83
2021/11/28 01:37:11;;;;;;;22.77;9.97;;;5.60;99.90;;;;;;5036321;27;20728;-83
2021/11/28 01:39:38;;;;;;;18.80;9.60;;;5.60;99.90;;;;;;5133849;27;20240;-83
2021/11/28 01:42:06;;;;;;;27.07;11.50;;;5.60;99.90;;;;;;5057001;27;20200;-82
2021/11/28 01:44:33;;;;;;;25.03;10.50;;;5.50;99.90;;;;;;5029660;27;20222;-83
2021/11/28 01:47:02;;;;;;;21.90;10.13;;;5.50;99.90;;;;;;5029463;28;20192;-83
2021/11/28 01:49:29;;;;;;;19.97;10.37;;;5.40;99.90;;;;;;5029045;28;20185;-83
2021/11/28 01:51:56;;;;;;;21.40;10.63;;;5.40;99.90;;;;;;5101195;27;20227;-83
2021/11/28 01:54:24;;;;;;;21.00;10.07;;;5.40;99.90;;;;;;5133307;27;20287;-82
2021/11/28 01:56:52;;;;;;;19.97;10.03;;;5.40;99.90;;;;;;5134325;27;20211;-83
2021/11/28 01:59:20;;;;;;;21.37;10.20;;;5.40;99.90;;;;;;5101080;27;20220;-83
2021/11/28 02:01:49;;;;;;;21.07;10.03;;;5.50;99.90;;;;;;5032991;27;20203;-83
2021/11/28 02:04:20;;;;;;;18.47;9.00;;;5.50;99.90;;;;;;5132724;27;20242;-83
2021/11/28 02:06:48;;;;;;;21.07;10.67;;;5.50;99.90;;;;;;5132594;27;20190;-83
2021/11/28 02:09:18;;;;;;;23.43;11.67;;;5.50;99.90;;;;;;5132965;27;20577;-83
2021/11/28 02:11:46;;;;;;;20.87;10.20;;;5.50;99.90;;;;;;5121235;27;20192;-82
2021/11/28 02:14:14;;;;;;;26.27;11.53;;;5.50;99.90;;;;;;5072531;27;20220;-82
2021/11/28 02:16:48;;;;;;;28.70;13.40;;;5.50;99.90;;;;;;5132625;27;20198;-82
2021/11/28 02:19:16;;;;;;;33.23;15.03;;;5.40;99.90;;;;;;5132528;27;20216;-82
2021/11/28 02:21:44;;;;;;;27.23;12.70;;;5.40;99.90;;;;;;5034108;27;20195;-82
2021/11/28 02:24:11;;;;;;;31.57;14.27;;;5.30;99.90;;;;;;5026394;28;20199;-82
2021/11/28 02:26:40;;;;;;;30.30;13.20;;;5.30;99.90;;;;;;5028635;28;20201;-83
2021/11/28 02:29:07;;;;;;;33.77;15.20;;;5.20;99.90;;;;;;5092756;27;20237;-82
2021/11/28 02:31:37;;;;;;;28.80;13.67;;;5.20;99.90;;;;;;5036813;27;20202;-82
2021/11/28 02:34:05;;;;;;;23.90;10.77;;;5.20;99.90;;;;;;5028504;28;20194;-83
2021/11/28 02:36:32;;;;;;;26.10;10.67;;;5.10;99.90;;;;;;5089474;27;20207;-83
2021/11/28 02:39:00;;;;;;;25.80;11.40;;;5.20;99.90;;;;;;5101107;27;20218;-83
2021/11/28 02:41:28;;;;;;;21.07;10.23;;;5.20;99.90;;;;;;5027663;28;20711;-83
2021/11/28 02:43:55;;;;;;;19.57;9.00;;;5.20;99.90;;;;;;5028232;28;20230;-83
2021/11/28 02:46:25;;;;;;;19.10;8.90;;;5.40;99.90;;;;;;5026953;28;20758;-82
2021/11/28 02:48:55;;;;;;;22.10;10.13;;;5.40;99.90;;;;;;5091992;27;20196;-82
2021/11/28 02:51:22;;;;;;;21.23;9.77;;;5.30;99.90;;;;;;5024908;28;20574;-82
2021/11/28 02:53:49;;;;;;;24.53;10.43;;;5.30;99.90;;;;;;5027202;28;20195;-82
2021/11/28 02:56:18;;;;;;;25.53;11.20;;;5.40;99.90;;;;;;5124516;27;20193;-83
2021/11/28 02:58:46;;;;;;;25.23;11.53;;;5.30;99.90;;;;;;5033689;27;20211;-83
2021/11/28 03:01:16;;;;;;;28.37;12.37;;;5.30;99.90;;;;;;5029309;27;20191;-83
2021/11/28 03:04:02;;;;;;;24.40;11.30;;;5.30;99.90;;;;;;5083032;27;20276;-83
2021/11/28 03:06:29;;;;;;;26.37;11.37;;;5.20;99.90;;;;;;5027252;28;20287;-83
2021/11/28 03:08:56;;;;;;;25.37;10.53;;;5.20;99.90;;;;;;5059063;27;20691;-83
2021/11/28 03:11:25;;;;;;;25.50;11.57;;;5.20;99.90;;;;;;5055411;27;20244;-83
2021/11/28 03:13:54;;;;;;;33.33;14.63;;;5.20;99.90;;;;;;5027757;28;20205;-83
2021/11/28 03:16:23;;;;;;;31.47;14.20;;;5.10;99.90;;;;;;5029150;28;20202;-82
2021/11/28 03:18:52;;;;;;;30.43;12.67;;;5.10;99.90;;;;;;5027834;28;20214;-83
2021/11/28 03:21:21;;;;;;;27.27;11.93;;;5.00;99.90;;;;;;5071917;27;20625;-83
2021/11/28 03:23:51;;;;;;;31.03;13.37;;;5.00;99.90;;;;;;5084713;27;20221;-82
2021/11/28 03:26:22;;;;;;;27.13;11.97;;;5.00;99.90;;;;;;5102098;27;20195;-83
2021/11/28 03:28:52;;;;;;;26.73;11.47;;;4.90;99.90;;;;;;5129206;27;20222;-83
2021/11/28 03:31:33;;;;;;;25.67;11.07;;;4.90;99.90;;;;;;5027210;28;20226;-82
2021/11/28 03:34:21;;;;;;;36.07;13.70;;;4.90;99.90;;;;;;5028552;28;20612;-83
2021/11/28 03:36:52;;;;;;;30.03;13.17;;;4.90;99.90;;;;;;5027392;28;20261;-83
2021/11/28 03:39:23;;;;;;;31.07;13.33;;;4.90;99.90;;;;;;5027874;28;20230;-83
2021/11/28 03:41:54;;;;;;;43.73;17.10;;;4.90;99.90;;;;;;5027574;28;20218;-83
2021/11/28 03:44:23;;;;;;;30.93;12.83;;;4.80;99.90;;;;;;5092904;27;20678;-83
2021/11/28 03:47:09;;;;;;;31.73;13.27;;;4.80;99.90;;;;;;5131370;27;20198;-83
2021/11/28 03:49:36;;;;;;;28.90;11.80;;;4.80;99.90;;;;;;5131319;27;20293;-83
2021/11/28 03:52:03;;;;;;;36.23;14.10;;;4.80;99.90;;;;;;5131627;27;20187;-83
2021/11/28 03:54:31;;;;;;;35.83;14.47;;;4.80;99.90;;;;;;5130928;27;20194;-82
2021/11/28 03:56:58;;;;;;;53.07;18.87;;;4.80;99.90;;;;;;5131135;27;20207;-83
2021/11/28 03:59:29;;;;;;;42.80;16.90;;;4.70;99.90;;;;;;5130342;27;20222;-83
2021/11/28 04:01:57;;;;;;;34.80;14.70;;;4.70;99.90;;;;;;5107555;27;20190;-83
2021/11/28 04:04:24;;;;;;;37.57;16.07;;;4.60;99.90;;;;;;5026752;28;20219;-83
2021/11/28 04:07:10;;;;;;;34.60;15.13;;;4.60;99.90;;;;;;5028322;28;20263;-83
2021/11/28 04:09:37;;;;;;;35.40;13.73;;;4.60;99.90;;;;;;5027446;28;20213;-83
2021/11/28 04:12:08;;;;;;;36.83;14.70;;;4.50;99.90;;;;;;5023864;27;20255;-83
2021/11/28 04:14:37;;;;;;;42.80;17.63;;;4.50;99.90;;;;;;5051574;27;20601;-82
2021/11/28 04:17:04;;;;;;;41.80;15.77;;;4.50;99.90;;;;;;5037465;27;20201;-82
2021/11/28 04:19:35;;;;;;;42.60;16.23;;;4.50;99.90;;;;;;5026898;28;20330;-82
2021/11/28 04:22:03;;;;;;;35.57;14.57;;;4.40;99.90;;;;;;5025992;28;20201;-83
2021/11/28 04:24:30;;;;;;;39.93;15.53;;;4.40;99.90;;;;;;5024834;28;20221;-82
2021/11/28 04:26:57;;;;;;;34.13;13.60;;;4.40;99.90;;;;;;5026664;28;20206;-82
2021/11/28 04:29:25;;;;;;;31.27;13.20;;;4.40;99.90;;;;;;5026434;28;20187;-82
2021/11/28 04:31:55;;;;;;;31.60;13.37;;;4.40;99.90;;;;;;5025998;28;20555;-82
2021/11/28 04:34:22;;;;;;;28.30;12.53;;;4.50;99.90;;;;;;5025805;28;20221;-81
2021/11/28 04:36:51;;;;;;;48.43;16.83;;;4.50;99.90;;;;;;5058243;27;20679;-82
2021/11/28 04:39:19;;;;;;;43.73;16.23;;;4.50;99.90;;;;;;5129894;27;20213;-81
2021/11/28 04:41:47;;;;;;;38.47;14.60;;;4.40;99.90;;;;;;5129880;27;20348;-82
2021/11/28 04:44:15;;;;;;;41.63;16.30;;;4.40;99.90;;;;;;5129672;27;20628;-82
2021/11/28 04:46:43;;;;;;;39.67;15.90;;;4.40;99.90;;;;;;5128571;27;20209;-82
2021/11/28 04:49:11;;;;;;;38.07;14.20;;;4.30;99.90;;;;;;5026278;28;20194;-82
2021/11/28 04:51:38;;;;;;;33.90;13.73;;;4.30;99.90;;;;;;5025802;28;20201;-82
2021/11/28 04:54:08;;;;;;;43.53;15.33;;;4.30;99.90;;;;;;5070729;28;20219;-83
2021/11/28 04:56:36;;;;;;;37.07;15.10;;;4.30;99.90;;;;;;5129835;27;20720;-83
2021/11/28 04:59:03;;;;;;;35.07;13.80;;;4.30;99.90;;;;;;5037704;28;20309;-82
2021/11/28 05:01:36;;;;;;;32.27;12.70;;;4.20;99.90;;;;;;5025746;28;20222;-83
2021/11/28 05:04:19;;;;;;;33.03;14.03;;;4.30;99.90;;;;;;5025262;28;20222;-83
2021/11/28 05:06:46;;;;;;;26.33;11.20;;;4.20;99.90;;;;;;5027159;28;20735;-82
2021/11/28 05:09:32;;;;;;;30.37;11.97;;;4.30;99.90;;;;;;5028489;28;20208;-82
2021/11/28 05:11:59;;;;;;;25.30;10.37;;;4.30;99.90;;;;;;5029386;28;20195;-82
2021/11/28 05:14:26;;;;;;;30.53;12.13;;;4.30;99.90;;;;;;5028917;28;20190;-82
2021/11/28 05:16:54;;;;;;;23.93;10.00;;;4.30;99.90;;;;;;5029598;28;20190;-82
2021/11/28 05:19:25;;;;;;;31.10;12.20;;;4.30;99.90;;;;;;5029356;28;20210;-82
2021/11/28 05:22:04;;;;;;;32.77;12.93;;;4.30;99.90;;;;;;5030572;28;20266;-82
2021/11/28 05:24:38;;;;;;;36.10;13.37;;;4.30;99.90;;;;;;5029307;28;20538;-81
2021/11/28 05:27:06;;;;;;;33.90;12.37;;;4.30;99.90;;;;;;5029804;28;20213;-82
2021/11/28 05:29:35;;;;;;;30.67;11.57;;;4.20;99.90;;;;;;5029567;28;20239;-82
2021/11/28 05:32:02;;;;;;;32.90;12.47;;;4.20;99.90;;;;;;5029352;28;20209;-82
2021/11/28 05:34:56;;;;;;;34.23;13.37;;;4.20;99.90;;;;;;5064633;27;20191;-82
2021/11/28 05:37:24;;;;;;;38.50;14.77;;;4.20;99.90;;;;;;5034868;27;20301;-82
2021/11/28 05:39:57;;;;;;;36.43;13.43;;;4.20;99.90;;;;;;5028799;28;20581;-82
2021/11/28 05:42:24;;;;;;;32.00;11.97;;;4.20;99.90;;;;;;5029397;27;20230;-82
2021/11/28 05:44:51;;;;;;;34.23;12.83;;;4.20;99.90;;;;;;5028709;28;20209;-82
2021/11/28 05:47:37;;;;;;;39.63;14.50;;;4.20;99.90;;;;;;5030939;28;20212;-82
2021/11/28 05:50:09;;;;;;;41.90;15.27;;;4.20;99.90;;;;;;5030983;28;20190;-81
2021/11/28 05:52:46;;;;;;;41.47;14.97;;;4.20;99.90;;;;;;5028410;28;20218;-82
2021/11/28 05:55:14;;;;;;;33.60;13.70;;;4.20;99.90;;;;;;5030041;28;20207;-82
2021/11/28 05:57:44;;;;;;;37.70;14.80;;;4.10;99.90;;;;;;5116510;27;20194;-83
2021/11/28 06:00:14;;;;;;;36.93;13.53;;;4.20;99.90;;;;;;5062658;27;20218;-82
2021/11/28 06:02:53;;;;;;;40.60;14.60;;;4.20;99.90;;;;;;5030206;28;20226;-82
2021/11/28 06:05:42;;;;;;;36.10;14.00;;;4.20;99.90;;;;;;5029850;28;20216;-82
2021/11/28 06:08:29;;;;;;;49.63;17.10;;;4.20;99.90;;;;;;4988691;28;20358;-82
2021/11/28 06:11:06;;;;;;;42.43;15.67;;;4.20;99.90;;;;;;4972095;28;20196;-82
2021/11/28 06:13:33;;;;;;;41.13;16.50;;;4.20;99.90;;;;;;4988212;28;20199;-81
2021/11/28 06:16:19;;;;;;;41.93;16.17;;;4.20;99.90;;;;;;4988245;28;20206;-81
2021/11/28 06:19:21;;;;;;;34.20;12.63;;;4.10;99.90;;;;;;4988025;28;20665;-81
2021/11/28 06:22:09;;;;;;;32.83;12.67;;;4.10;99.90;;;;;;4987073;28;20684;-82
2021/11/28 06:24:43;;;;;;;35.77;13.20;;;4.20;99.90;;;;;;5007317;28;20645;-82
2021/11/28 06:27:19;;;;;;;33.10;13.23;;;4.20;99.90;;;;;;5055942;28;20241;-81
2021/11/28 06:29:47;;;;;;;30.80;12.20;;;4.30;99.90;;;;;;5073728;28;20213;-81
2021/11/28 06:32:15;;;;;;;30.47;11.27;;;4.30;99.90;;;;;;5009422;28;20220;-82
2021/11/28 06:35:01;;;;;;;30.13;12.47;;;4.30;99.90;;;;;;4986756;28;20231;-82
2021/11/28 06:37:32;;;;;;;23.30;10.07;;;4.30;99.90;;;;;;4986955;28;20188;-77
2021/11/28 06:40:20;;;;;;;24.37;9.93;;;4.40;99.90;;;;;;4974435;28;20220;-83
2021/11/28 06:43:13;;;;;;;23.63;10.40;;;4.40;99.90;;;;;;4984359;28;20200;-82
2021/11/28 06:45:41;;;;;;;30.37;10.83;;;4.40;99.90;;;;;;5006735;28;20198;-82
2021/11/28 06:48:08;;;;;;;30.30;12.17;;;4.40;99.90;;;;;;5027805;28;20702;-82
2021/11/28 06:51:02;;;;;;;32.23;11.80;;;4.40;99.90;;;;;;5027670;28;20197;-82
2021/11/28 06:53:36;;;;;;;25.67;10.93;;;4.40;99.90;;;;;;5095360;27;20620;-83
2021/11/28 06:56:21;;;;;;;32.77;12.13;;;4.30;99.90;;;;;;5132890;27;20190;-83
2021/11/28 06:58:50;;;;;;;27.83;11.07;;;4.40;99.90;;;;;;5128035;27;20195;-83
2021/11/28 07:01:18;;;;;;;24.50;10.37;;;4.40;99.90;;;;;;5027888;28;20245;-83
2021/11/28 07:03:59;;;;;;;24.73;10.43;;;4.40;99.90;;;;;;5058327;27;20214;-83
2021/11/28 07:06:50;;;;;;;30.67;12.37;;;4.50;99.90;;;;;;5031175;27;20191;-82
2021/11/28 07:09:18;;;;;;;26.93;10.97;;;4.50;99.90;;;;;;5027783;28;20195;-82
2021/11/28 07:11:46;;;;;;;23.70;9.43;;;4.60;99.90;;;;;;5028101;28;20186;-82
2021/11/28 07:14:13;;;;;;;23.63;9.60;;;4.60;99.90;;;;;;5027606;28;20201;-82
2021/11/28 07:16:42;;;;;;;27.77;10.17;;;4.70;99.90;;;;;;5027353;28;20269;-81
2021/11/28 07:19:09;;;;;;;27.33;10.33;;;4.70;99.90;;;;;;5027436;28;20721;-81
2021/11/28 07:22:03;;;;;;;22.73;9.40;;;4.60;99.90;;;;;;5020818;28;20234;-81
2021/11/28 07:24:32;;;;;;;24.90;10.67;;;4.70;99.90;;;;;;5027300;28;20223;-81
2021/11/28 07:26:59;;;;;;;24.33;10.50;;;4.70;99.90;;;;;;5027253;28;20218;-82
2021/11/28 07:29:28;;;;;;;27.07;11.17;;;4.70;99.90;;;;;;5093421;27;20282;-82
2021/11/28 07:31:55;;;;;;;25.37;10.03;;;4.70;99.90;;;;;;5070128;27;20309;-82
2021/11/28 07:34:41;;;;;;;30.67;11.50;;;4.80;99.90;;;;;;5026906;28;20248;-83
2021/11/28 07:37:11;;;;;;;33.13;13.17;;;4.90;99.90;;;;;;5028153;28;20291;-82
2021/11/28 07:39:41;;;;;;;31.13;13.10;;;4.80;99.90;;;;;;5026497;28;20291;-82
2021/11/28 07:42:08;;;;;;;38.90;15.03;;;4.80;99.90;;;;;;5027633;28;20653;-82
2021/11/28 07:44:38;;;;;;;31.80;13.20;;;4.90;99.90;;;;;;5028716;28;20570;-83
2021/11/28 07:47:24;;;;;;;36.53;14.43;;;4.90;99.90;;;;;;5039924;27;20205;-82
2021/11/28 07:50:11;;;;;;;28.27;12.27;;;5.00;99.90;;;;;;5025991;28;20196;-81
2021/11/28 07:52:40;;;;;;;32.53;13.50;;;5.00;99.90;;;;;;5028338;28;20194;-83
2021/11/28 07:55:15;;;;;;;34.03;12.27;;;5.10;99.90;;;;;;5085862;27;20290;-82
2021/11/28 07:58:05;;;;;;;36.50;14.47;;;5.10;99.90;;;;;;5089269;28;20192;-82
2021/11/28 08:00:43;;;;;;;38.40;16.20;;;5.10;99.90;;;;;;4993012;28;20235;-83
2021/11/28 08:03:19;;;;;;;40.20;15.23;;;5.00;99.90;;;;;;4970017;28;20235;-82
2021/11/28 08:06:05;;;;;;;35.80;14.67;;;4.90;99.90;;;;;;4986117;28;20214;-82
2021/11/28 08:08:50;;;;;;;40.50;15.53;;;4.90;99.90;;;;;;4986785;28;20227;-82
2021/11/28 08:11:39;;;;;;;33.50;14.40;;;4.90;99.90;;;;;;4986026;28;20203;-82
2021/11/28 08:14:06;;;;;;;40.13;16.80;;;4.90;99.90;;;;;;4969980;28;20187;-82
2021/11/28 08:16:33;;;;;;;44.03;16.23;;;4.90;99.90;;;;;;4985753;28;20231;-81
2021/11/28 08:19:00;;;;;;;32.67;13.87;;;4.90;99.90;;;;;;4970305;28;20279;-82
2021/11/28 08:21:27;;;;;;;32.37;13.97;;;4.90;99.90;;;;;;4980182;28;20246;-82
2021/11/28 08:23:55;;;;;;;41.23;15.60;;;5.00;99.90;;;;;;4969626;28;20192;-81
2021/11/28 08:26:23;;;;;;;34.93;13.93;;;5.00;99.90;;;;;;4985714;28;20241;-82
2021/11/28 08:28:52;;;;;;;42.40;16.47;;;5.00;99.90;;;;;;4986730;28;20333;-82
2021/11/28 08:31:19;;;;;;;50.00;17.93;;;5.00;99.90;;;;;;4986250;28;20262;-83
2021/11/28 08:34:19;;;;;;;44.23;16.77;;;5.00;99.90;;;;;;4911457;28;20194;-82
2021/11/28 08:36:56;;;;;;;50.37;17.27;;;4.90;99.90;;;;;;4943711;28;20201;-82
2021/11/28 08:39:24;;;;;;;46.90;17.67;;;4.90;99.90;;;;;;4971362;28;20671;-82
2021/11/28 08:41:51;;;;;;;37.53;15.03;;;4.90;99.90;;;;;;5011765;28;20568;-82
2021/11/28 08:44:20;;;;;;;41.20;15.53;;;4.80;99.90;;;;;;5027721;28;20687;-82
2021/11/28 08:46:48;;;;;;;40.00;15.90;;;4.90;99.90;;;;;;5027483;28;20281;-81
2021/11/28 08:49:15;;;;;;;41.80;14.70;;;4.90;99.90;;;;;;5028380;28;20249;-81
2021/11/28 08:51:42;;;;;;;43.90;15.90;;;4.90;99.90;;;;;;5044225;28;20198;-83
2021/11/28 08:54:13;;;;;;;36.63;14.07;;;4.90;99.90;;;;;;4957900;28;20198;-78
2021/11/28 08:56:40;;;;;;;47.70;16.53;;;5.00;99.90;;;;;;4949057;28;20240;-81
2021/11/28 08:59:09;;;;;;;41.27;16.13;;;5.00;99.90;;;;;;5034051;28;20194;-83
2021/11/28 09:01:37;;;;;;;38.97;15.43;;;4.90;99.90;;;;;;4999467;28;20272;-80
2021/11/28 09:04:05;;;;;;;35.57;13.83;;;4.90;99.90;;;;;;4928162;28;20333;-79
2021/11/28 09:06:34;;;;;;;34.53;13.57;;;4.90;99.90;;;;;;4927803;28;20202;-79
2021/11/28 09:09:01;;;;;;;36.30;13.93;;;5.00;99.90;;;;;;4934296;28;20400;-77
2021/11/28 09:11:28;;;;;;;37.83;13.63;;;5.00;99.90;;;;;;5025005;28;20239;-76
2021/11/28 09:13:56;;;;;;;41.40;15.07;;;5.10;99.90;;;;;;5025132;28;20184;-74
2021/11/28 09:16:23;;;;;;;33.90;14.43;;;5.10;99.90;;;;;;5024302;28;20659;-77
2021/11/28 09:18:55;;;;;;;31.80;12.73;;;5.10;99.90;;;;;;5025512;28;20214;-76
2021/11/28 09:21:23;;;;;;;39.27;14.37;;;5.20;99.90;;;;;;5023603;28;20400;-74
2021/11/28 09:26:35;;;;;;;39.83;14.63;;;5.20;99.90;;;;;;5023136;28;20202;-76
2021/11/28 09:29:03;;;;;;;43.33;16.73;;;5.30;99.90;;;;;;5024708;28;20241;-76
2021/11/28 09:31:31;;;;;;;32.47;14.37;;;5.30;99.90;;;;;;5026374;28;20713;-75
2021/11/28 09:34:01;;;;;;;44.53;16.83;;;5.30;99.90;;;;;;5026858;28;20302;-75
2021/11/28 09:36:29;;;;;;;43.60;17.03;;;5.40;99.90;;;;;;5024089;28;20198;-75
2021/11/28 09:38:56;;;;;;;33.90;13.33;;;5.50;99.90;;;;;;5026705;28;20186;-74
2021/11/28 09:41:25;;;;;;;50.17;18.17;;;5.50;99.90;;;;;;5024593;28;20215;-70
2021/11/28 09:43:56;;;;;;;53.60;20.27;;;5.60;99.90;;;;;;5025750;28;20965;-69
2021/11/28 09:46:25;;;;;;;38.70;15.37;;;5.70;99.90;;;;;;5023444;28;20627;-68
2021/11/28 09:48:57;;;;;;;40.77;16.00;;;5.70;99.90;;;;;;5024865;28;20207;-69
2021/11/28 09:51:28;;;;;;;44.97;17.30;;;5.70;99.90;;;;;;5025945;28;20606;-69
2021/11/28 09:53:57;;;;;;;42.27;16.50;;;5.80;99.90;;;;;;5024772;28;20243;-69
2021/11/28 09:56:24;;;;;;;37.87;15.23;;;5.90;99.90;;;;;;5026311;28;20191;-69
2021/11/28 09:58:52;;;;;;;36.67;15.70;;;5.90;99.90;;;;;;5028498;28;20204;-69
2021/11/28 10:01:20;;;;;;;46.27;17.07;;;5.90;99.90;;;;;;5029697;28;20208;-69
2021/11/28 10:03:47;;;;;;;46.57;17.93;;;5.90;99.90;;;;;;5028630;28;20321;-69
2021/11/28 10:06:15;;;;;;;39.27;15.83;;;5.80;99.90;;;;;;5028733;28;20222;-69
2021/11/28 10:08:44;;;;;;;37.53;15.10;;;5.80;99.90;;;;;;5028330;28;20200;-69
2021/11/28 10:12:03;;;;;;;43.23;16.33;;;5.80;99.90;;;;;;5028105;28;20187;-69
2021/11/28 10:14:30;;;;;;;38.10;15.90;;;5.80;99.90;;;;;;5028487;28;20238;-70
2021/11/28 10:16:57;;;;;;;37.07;14.77;;;5.90;99.90;;;;;;5029089;28;20223;-71
2021/11/28 10:19:24;;;;;;;31.63;14.13;;;5.80;99.90;;;;;;5029451;28;20198;-71
2021/11/28 10:21:51;;;;;;;37.90;15.03;;;5.80;99.90;;;;;;5028997;28;20290;-71
2021/11/28 10:24:20;;;;;;;32.97;13.17;;;5.80;99.90;;;;;;5029589;28;20196;-71
2021/11/28 10:26:55;;;;;;;37.40;14.60;;;5.80;99.90;;;;;;5027822;28;20240;-68
2021/11/28 10:29:23;;;;;;;41.23;17.40;;;6.20;99.90;;;;;;5029380;28;20277;-67
2021/11/28 10:31:53;;;;;;;40.27;16.40;;;5.90;99.90;;;;;;5029670;28;20287;-68
2021/11/28 10:34:23;;;;;;;35.40;15.63;;;5.90;99.90;;;;;;5029324;28;20241;-66
2021/11/28 10:36:51;;;;;;;33.97;14.47;;;5.90;99.90;;;;;;5028959;27;20234;-70
2021/11/28 10:39:21;;;;;;;39.37;16.07;;;5.90;99.90;;;;;;5029167;28;20651;-77
2021/11/28 10:41:52;;;;;;;37.37;15.77;;;5.90;99.90;;;;;;5027971;28;20211;-78
2021/11/28 10:44:20;;;;;;;30.47;13.80;;;6.00;99.90;;;;;;5025998;28;20725;-77
2021/11/28 10:46:48;;;;;;;29.73;12.50;;;6.00;99.90;;;;;;5025747;28;20662;-78
2021/11/28 10:49:17;;;;;;;29.27;13.33;;;6.00;99.90;;;;;;5026910;28;20227;-77
2021/11/28 10:51:46;;;;;;;45.00;17.53;;;6.00;99.90;;;;;;5026256;28;20237;-77
2021/11/28 10:54:26;;;;;;;35.27;14.07;;;6.00;99.90;;;;;;5025894;28;20607;-78
2021/11/28 10:57:04;;;;;;;35.43;14.00;;;6.00;99.90;;;;;;5026800;28;20210;-78
2021/11/28 10:59:31;;;;;;;34.63;14.97;;;5.90;99.90;;;;;;5027730;28;20197;-77
2021/11/28 11:01:58;;;;;;;40.57;16.17;;;5.90;99.90;;;;;;5028002;28;20210;-78
2021/11/28 11:04:28;;;;;;;38.30;15.00;;;5.90;99.90;;;;;;5028766;28;20790;-78
2021/11/28 11:07:08;;;;;;;34.67;15.00;;;5.90;99.90;;;;;;5027482;28;20204;-77
2021/11/28 11:09:42;;;;;;;33.73;13.57;;;5.90;99.90;;;;;;5027184;28;20739;-77
2021/11/28 11:12:25;;;;;;;35.10;14.57;;;5.90;99.90;;;;;;5027561;28;20199;-79
2021/11/28 11:14:56;;;;;;;30.17;12.73;;;5.90;99.90;;;;;;5029020;28;20196;-78
2021/11/28 11:17:26;;;;;;;34.97;14.43;;;5.90;99.90;;;;;;5028137;28;20198;-78
2021/11/28 11:19:53;;;;;;;32.10;12.80;;;5.90;99.90;;;;;;5027454;28;20217;-78
2021/11/28 11:22:24;;;;;;;27.23;12.63;;;5.90;99.90;;;;;;5027087;28;20673;-76
2021/11/28 11:24:56;;;;;;;27.20;12.40;;;5.90;99.90;;;;;;5027556;28;20218;-76
2021/11/28 11:27:27;;;;;;;30.80;12.60;;;5.90;99.90;;;;;;5025069;28;20195;-76
2021/11/28 11:29:57;;;;;;;35.93;15.03;;;5.90;99.90;;;;;;5025898;28;20204;-77
2021/11/28 11:32:25;;;;;;;31.93;13.23;;;5.90;99.90;;;;;;5027269;28;20188;-77
2021/11/28 11:34:56;;;;;;;32.60;13.63;;;5.90;99.90;;;;;;5055216;27;20228;-77
2021/11/28 11:37:26;;;;;;;34.50;14.03;;;5.90;99.90;;;;;;5129112;27;20602;-77
2021/11/28 11:39:56;;;;;;;35.73;14.40;;;5.90;99.90;;;;;;5130237;27;20198;-77
2021/11/28 11:42:27;;;;;;;30.27;13.73;;;5.90;99.90;;;;;;5132199;27;20215;-77
2021/11/28 11:44:55;;;;;;;31.77;13.80;;;5.90;99.90;;;;;;5132419;27;20192;-78
2021/11/28 11:47:22;;;;;;;30.17;13.07;;;5.90;99.90;;;;;;5131509;27;20263;-77
2021/11/28 11:49:50;;;;;;;27.83;11.67;;;5.90;99.90;;;;;;5131994;27;20535;-77
2021/11/28 11:52:18;;;;;;;28.33;12.63;;;5.90;99.90;;;;;;5130716;27;20216;-77
2021/11/28 11:54:47;;;;;;;38.33;14.73;;;6.00;99.90;;;;;;5130899;27;20203;-75
2021/11/28 11:57:21;;;;;;;27.00;11.60;;;6.00;99.90;;;;;;5131557;27;20224;-76
2021/11/28 12:00:10;;;;;;;23.87;11.10;;;5.90;99.90;;;;;;5131634;27;20192;-75
2021/11/28 12:02:42;;;;;;;27.03;11.80;;;5.90;99.90;;;;;;5130369;27;20299;-75
2021/11/28 12:05:31;;;;;;;36.63;13.10;;;6.00;99.90;;;;;;5131935;27;20246;-76
2021/11/28 12:08:00;;;;;;;35.67;14.57;;;5.90;99.90;;;;;;5130072;27;20196;-76
2021/11/28 12:10:30;;;;;;;34.47;14.03;;;5.90;99.90;;;;;;5131392;27;20607;-76
2021/11/28 12:13:01;;;;;;;39.93;15.30;;;5.90;99.90;;;;;;5131860;27;20209;-76
2021/11/28 12:15:31;;;;;;;29.53;12.83;;;5.80;99.90;;;;;;5130386;27;20249;-76
2021/11/28 12:17:59;;;;;;;37.87;14.37;;;5.80;99.90;;;;;;5131132;27;20676;-76
2021/11/28 12:20:56;;;;;;;31.33;11.53;;;5.80;99.90;;;;;;5130475;27;20198;-76
2021/11/28 12:24:05;;;;;;;32.03;12.70;;;5.80;99.90;;;;;;5131515;27;20199;-76
2021/11/28 12:26:44;;;;;;;25.63;11.40;;;5.90;99.90;;;;;;5131239;27;20231;-76
2021/11/28 12:29:45;;;;;;;31.03;12.03;;;5.90;99.90;;;;;;5129319;27;20199;-76
2021/11/28 12:32:33;;;;;;;29.53;11.67;;;5.90;99.90;;;;;;5068009;28;20232;-76
2021/11/28 12:35:06;;;;;;;22.00;9.77;;;5.90;99.90;;;;;;5068375;28;20192;-77
2021/11/28 12:37:48;;;;;;;23.77;9.67;;;5.90;99.90;;;;;;5050487;28;20582;-76
2021/11/28 12:40:31;;;;;;;23.27;9.70;;;6.00;99.90;;;;;;5067612;28;20195;-76
2021/11/28 12:43:13;;;;;;;26.43;11.63;;;6.00;99.90;;;;;;4964526;28;20206;-76
2021/11/28 12:45:41;;;;;;;24.80;11.33;;;6.00;99.90;;;;;;4966581;28;20717;-76
2021/11/28 12:48:12;;;;;;;22.50;9.90;;;6.00;99.90;;;;;;4966069;28;20308;-76
2021/11/28 12:51:01;;;;;;;20.83;9.57;;;6.00;99.90;;;;;;4950019;28;20199;-76
2021/11/28 12:53:34;;;;;;;20.33;9.13;;;6.00;99.90;;;;;;4950461;28;20719;-76
2021/11/28 12:56:19;;;;;;;23.10;8.97;;;6.10;99.90;;;;;;4966635;28;20226;-75
2021/11/28 12:59:15;;;;;;;17.37;7.97;;;6.10;99.90;;;;;;4965871;28;20250;-77
2021/11/28 13:01:55;;;;;;;16.77;7.23;;;6.10;99.90;;;;;;4966108;28;20799;-76
2021/11/28 13:04:45;;;;;;;17.30;7.47;;;6.10;99.90;;;;;;4966060;28;20241;-76